createdAt,value
2023-05-04T00:00:16.760Z,7.68
2023-05-04T00:01:17.324Z,7.68
2023-05-04T00:02:17.231Z,7.67
2023-05-04T00:03:16.907Z,7.66
2023-05-04T00:04:16.679Z,7.67
2023-05-04T00:05:16.444Z,7.63
2023-05-04T00:06:16.989Z,7.61
2023-05-04T00:07:16.530Z,7.60
2023-05-04T00:08:17.080Z,7.56
2023-05-04T00:09:16.646Z,7.56
2023-05-04T00:10:17.245Z,7.54
2023-05-04T00:11:16.811Z,7.53
2023-05-04T00:12:16.829Z,7.53
2023-05-04T00:13:16.425Z,7.50
2023-05-04T00:14:17.040Z,7.49
2023-05-04T00:15:16.605Z,7.51
2023-05-04T00:16:17.192Z,7.46
2023-05-04T00:17:16.821Z,7.50
2023-05-04T00:18:16.432Z,7.51
2023-05-04T00:19:16.973Z,7.54
2023-05-04T00:20:16.570Z,7.51
2023-05-04T00:21:17.153Z,7.50
2023-05-04T00:22:17.121Z,7.50
2023-05-04T00:23:16.703Z,7.51
2023-05-04T00:24:17.286Z,7.51
2023-05-04T00:25:16.848Z,7.46
2023-05-04T00:26:16.387Z,7.45
2023-05-04T00:27:17.006Z,7.45
2023-05-04T00:28:16.558Z,7.40
2023-05-04T00:29:16.433Z,7.39
2023-05-04T00:30:17.049Z,7.38
2023-05-04T00:31:16.608Z,7.33
2023-05-04T00:32:16.449Z,7.35
2023-05-04T00:33:16.989Z,7.30
2023-05-04T00:34:16.538Z,7.23
2023-05-04T00:35:17.082Z,7.21
2023-05-04T00:36:16.628Z,7.18
2023-05-04T00:37:17.193Z,7.16
2023-05-04T00:38:16.812Z,7.10
2023-05-04T00:39:16.442Z,7.08
2023-05-04T00:40:17.010Z,7.05
2023-05-04T00:41:16.557Z,7.02
2023-05-04T00:42:17.053Z,7.04
2023-05-04T00:43:16.595Z,7.07
2023-05-04T00:44:17.150Z,7.08
2023-05-04T00:45:16.687Z,6.98
2023-05-04T00:46:17.246Z,6.94
2023-05-04T00:47:17.093Z,7.02
2023-05-04T00:48:16.873Z,7.02
2023-05-04T00:49:16.492Z,7.02
2023-05-04T00:50:17.089Z,6.97
2023-05-04T00:51:16.656Z,6.91
2023-05-04T00:52:17.203Z,6.90
2023-05-04T00:53:16.799Z,6.88
2023-05-04T00:54:16.357Z,6.86
2023-05-04T00:55:16.965Z,6.84
2023-05-04T00:56:16.673Z,6.84
2023-05-04T00:57:17.275Z,6.82
2023-05-04T00:58:16.811Z,6.80
2023-05-04T00:59:16.377Z,6.80
2023-05-04T01:00:16.965Z,6.82
2023-05-04T01:01:16.547Z,6.77
2023-05-04T01:02:17.338Z,6.77
2023-05-04T01:03:16.965Z,6.72
2023-05-04T01:04:16.899Z,6.74
2023-05-04T01:05:16.502Z,6.76
2023-05-04T01:06:17.138Z,6.72
2023-05-04T01:07:16.697Z,6.70
2023-05-04T01:08:17.265Z,6.70
2023-05-04T01:09:16.806Z,6.67
2023-05-04T01:10:16.358Z,6.66
2023-05-04T01:11:16.910Z,6.69
2023-05-04T01:12:16.928Z,6.72
2023-05-04T01:13:16.611Z,6.70
2023-05-04T01:14:16.367Z,6.69
2023-05-04T01:15:16.911Z,6.67
2023-05-04T01:16:16.476Z,6.69
2023-05-04T01:17:17.124Z,6.67
2023-05-04T01:18:16.712Z,6.74
2023-05-04T01:19:16.511Z,6.76
2023-05-04T01:20:17.037Z,6.74
2023-05-04T01:21:16.563Z,6.82
2023-05-04T01:22:17.279Z,6.87
2023-05-04T01:23:16.825Z,6.83
2023-05-04T01:24:16.406Z,6.88
2023-05-04T01:25:16.973Z,6.93
2023-05-04T01:26:16.501Z,6.87
2023-05-04T01:27:17.036Z,6.86
2023-05-04T01:28:16.571Z,6.84
2023-05-04T01:29:17.153Z,6.83
2023-05-04T01:30:16.690Z,6.79
2023-05-04T01:31:17.339Z,6.72
2023-05-04T01:32:16.465Z,6.70
2023-05-04T01:33:17.006Z,6.67
2023-05-04T01:34:16.591Z,6.63
2023-05-04T01:35:17.149Z,6.60
2023-05-04T01:36:16.697Z,6.57
2023-05-04T01:37:17.276Z,6.57
2023-05-04T01:38:16.819Z,6.53
2023-05-04T01:39:16.380Z,6.52
2023-05-04T01:40:16.924Z,6.52
2023-05-04T01:41:16.518Z,6.50
2023-05-04T01:42:17.050Z,6.53
2023-05-04T01:43:16.590Z,6.52
2023-05-04T01:44:17.155Z,6.48
2023-05-04T01:45:16.689Z,6.45
2023-05-04T01:46:17.262Z,6.43
2023-05-04T01:47:16.881Z,6.39
2023-05-04T01:48:16.460Z,6.38
2023-05-04T01:49:17.018Z,6.39
2023-05-04T01:50:16.581Z,6.36
2023-05-04T01:51:17.145Z,6.35
2023-05-04T01:52:17.017Z,6.32
2023-05-04T01:53:16.587Z,6.29
2023-05-04T01:54:17.138Z,6.28
2023-05-04T01:55:16.715Z,6.31
2023-05-04T01:56:17.272Z,6.28
2023-05-04T01:57:16.823Z,6.26
2023-05-04T01:58:16.412Z,6.26
2023-05-04T01:59:16.969Z,6.26
2023-05-04T02:00:16.587Z,6.28
2023-05-04T02:01:17.199Z,6.26
2023-05-04T02:02:17.049Z,6.25
2023-05-04T02:03:16.666Z,6.26
2023-05-04T02:04:16.358Z,6.24
2023-05-04T02:05:16.920Z,6.24
2023-05-04T02:06:16.454Z,6.25
2023-05-04T02:07:17.029Z,6.18
2023-05-04T02:08:16.583Z,6.22
2023-05-04T02:09:17.162Z,6.21
2023-05-04T02:10:16.754Z,6.18
2023-05-04T02:11:17.316Z,6.12
2023-05-04T02:12:17.255Z,6.14
2023-05-04T02:13:16.967Z,6.15
2023-05-04T02:14:16.808Z,6.11
2023-05-04T02:15:16.370Z,6.11
2023-05-04T02:16:16.986Z,6.08
2023-05-04T02:17:16.636Z,6.10
2023-05-04T02:18:16.709Z,6.07
2023-05-04T02:19:17.306Z,6.07
2023-05-04T02:20:16.884Z,6.04
2023-05-04T02:21:16.440Z,6.04
2023-05-04T02:22:16.743Z,6.07
2023-05-04T02:23:17.312Z,6.17
2023-05-04T02:24:16.879Z,6.15
2023-05-04T02:25:16.399Z,6.10
2023-05-04T02:26:16.969Z,6.07
2023-05-04T02:27:16.552Z,6.03
2023-05-04T02:28:17.117Z,6.00
2023-05-04T02:29:16.664Z,5.94
2023-05-04T02:30:17.232Z,5.89
2023-05-04T02:31:16.920Z,5.86
2023-05-04T02:32:17.261Z,5.86
2023-05-04T02:33:16.821Z,5.89
2023-05-04T02:34:16.391Z,5.86
2023-05-04T02:35:16.946Z,5.87
2023-05-04T02:36:16.500Z,5.86
2023-05-04T02:37:17.064Z,5.90
2023-05-04T02:38:16.626Z,5.93
2023-05-04T02:39:17.179Z,5.89
2023-05-04T02:40:16.762Z,5.86
2023-05-04T02:41:16.321Z,5.86
2023-05-04T02:42:17.071Z,5.85
2023-05-04T02:43:16.664Z,5.83
2023-05-04T02:44:17.233Z,5.85
2023-05-04T02:45:16.778Z,5.83
2023-05-04T02:46:16.407Z,5.83
2023-05-04T02:47:17.093Z,5.80
2023-05-04T02:48:16.652Z,5.82
2023-05-04T02:49:17.189Z,5.80
2023-05-04T02:50:16.752Z,5.80
2023-05-04T02:51:17.308Z,5.92
2023-05-04T02:52:16.571Z,5.94
2023-05-04T02:53:17.128Z,5.93
2023-05-04T02:54:16.660Z,6.00
2023-05-04T02:55:17.201Z,6.00
2023-05-04T02:56:16.726Z,5.98
2023-05-04T02:57:17.306Z,5.94
2023-05-04T02:58:16.858Z,5.93
2023-05-04T02:59:16.422Z,5.90
2023-05-04T03:00:16.972Z,5.87
2023-05-04T03:01:16.560Z,5.85
2023-05-04T03:02:17.259Z,5.86
2023-05-04T03:03:16.810Z,5.80
2023-05-04T03:04:16.390Z,5.77
2023-05-04T03:05:17.027Z,5.76
2023-05-04T03:06:16.612Z,5.69
2023-05-04T03:07:17.153Z,5.68
2023-05-04T03:08:16.720Z,5.68
2023-05-04T03:09:17.258Z,5.68
2023-05-04T03:10:16.770Z,5.68
2023-05-04T03:11:17.279Z,5.68
2023-05-04T03:12:17.181Z,5.68
2023-05-04T03:13:16.840Z,5.65
2023-05-04T03:14:16.660Z,5.66
2023-05-04T03:15:17.160Z,5.65
2023-05-04T03:16:16.807Z,5.65
2023-05-04T03:17:16.394Z,5.62
2023-05-04T03:18:16.919Z,5.62
2023-05-04T03:19:16.500Z,5.62
2023-05-04T03:20:17.075Z,5.62
2023-05-04T03:21:16.619Z,5.59
2023-05-04T03:22:17.196Z,5.59
2023-05-04T03:23:16.753Z,5.62
2023-05-04T03:24:17.304Z,5.61
2023-05-04T03:25:16.873Z,5.59
2023-05-04T03:26:16.464Z,5.59
2023-05-04T03:27:17.011Z,5.59
2023-05-04T03:28:16.552Z,5.62
2023-05-04T03:29:17.103Z,5.59
2023-05-04T03:30:16.655Z,5.58
2023-05-04T03:31:17.210Z,5.61
2023-05-04T03:32:17.171Z,5.58
2023-05-04T03:33:16.848Z,5.55
2023-05-04T03:34:16.361Z,5.58
2023-05-04T03:35:23.267Z,5.55
2023-05-04T03:36:16.621Z,5.55
2023-05-04T03:37:17.165Z,5.53
2023-05-04T03:38:16.690Z,5.53
2023-05-04T03:39:17.236Z,5.51
2023-05-04T03:40:16.758Z,5.48
2023-05-04T03:41:17.285Z,5.48
2023-05-04T03:42:17.044Z,5.49
2023-05-04T03:43:16.614Z,5.45
2023-05-04T03:44:17.196Z,5.45
2023-05-04T03:45:16.793Z,5.48
2023-05-04T03:46:16.351Z,5.46
2023-05-04T03:47:17.087Z,5.51
2023-05-04T03:48:16.648Z,5.48
2023-05-04T03:49:17.224Z,5.48
2023-05-04T03:50:16.827Z,5.51
2023-05-04T03:51:16.384Z,5.49
2023-05-04T03:52:16.970Z,5.48
2023-05-04T03:53:16.525Z,5.48
2023-05-04T03:54:17.097Z,5.49
2023-05-04T03:55:16.646Z,5.46
2023-05-04T03:56:17.222Z,5.45
2023-05-04T03:57:16.794Z,5.46
2023-05-04T03:58:16.359Z,5.46
2023-05-04T03:59:16.930Z,5.43
2023-05-04T04:00:16.528Z,5.45
2023-05-04T04:01:17.079Z,5.43
2023-05-04T04:02:17.363Z,5.43
2023-05-04T04:03:17.235Z,5.43
2023-05-04T04:04:17.210Z,5.45
2023-05-04T04:05:16.804Z,5.43
2023-05-04T04:06:16.349Z,5.45
2023-05-04T04:07:16.907Z,5.45
2023-05-04T04:08:16.475Z,5.45
2023-05-04T04:09:17.063Z,5.49
2023-05-04T04:10:16.861Z,5.51
2023-05-04T04:11:16.423Z,5.55
2023-05-04T04:12:16.663Z,5.57
2023-05-04T04:13:17.318Z,5.58
2023-05-04T04:14:16.933Z,5.58
2023-05-04T04:15:16.506Z,5.58
2023-05-04T04:16:17.128Z,5.58
2023-05-04T04:17:16.797Z,5.57
2023-05-04T04:18:16.338Z,5.62
2023-05-04T04:19:16.901Z,5.52
2023-05-04T04:20:16.484Z,5.43
2023-05-04T04:21:17.076Z,5.43
2023-05-04T04:22:16.490Z,5.45
2023-05-04T04:23:17.084Z,5.49
2023-05-04T04:24:16.623Z,5.58
2023-05-04T04:25:17.201Z,5.61
2023-05-04T04:26:16.768Z,5.68
2023-05-04T04:27:16.307Z,5.72
2023-05-04T04:28:16.854Z,5.77
2023-05-04T04:29:16.396Z,5.77
2023-05-04T04:30:16.931Z,5.80
2023-05-04T04:31:16.520Z,5.80
2023-05-04T04:32:17.118Z,5.90
2023-05-04T04:33:16.690Z,5.96
2023-05-04T04:34:17.274Z,6.01
2023-05-04T04:35:16.844Z,6.01
2023-05-04T04:36:16.383Z,6.03
2023-05-04T04:37:16.937Z,6.10
2023-05-04T04:38:16.492Z,6.14
2023-05-04T04:39:17.149Z,6.22
2023-05-04T04:40:16.872Z,6.29
2023-05-04T04:41:16.400Z,6.29
2023-05-04T04:42:17.200Z,6.28
2023-05-04T04:43:16.784Z,6.12
2023-05-04T04:44:16.349Z,6.18
2023-05-04T04:45:16.899Z,6.25
2023-05-04T04:46:16.593Z,6.26
2023-05-04T04:47:17.198Z,6.28
2023-05-04T04:48:16.783Z,6.32
2023-05-04T04:49:16.350Z,6.38
2023-05-04T04:50:16.920Z,6.42
2023-05-04T04:51:16.455Z,6.43
2023-05-04T04:52:16.985Z,6.53
2023-05-04T04:53:16.544Z,6.56
2023-05-04T04:54:17.113Z,6.52
2023-05-04T04:55:16.703Z,6.65
2023-05-04T04:56:17.279Z,6.76
2023-05-04T04:57:16.857Z,6.69
2023-05-04T04:58:16.418Z,6.77
2023-05-04T04:59:16.982Z,6.84
2023-05-04T05:00:16.553Z,6.79
2023-05-04T05:01:17.116Z,6.77
2023-05-04T05:02:17.251Z,6.80
2023-05-04T05:03:16.908Z,6.84
2023-05-04T05:04:16.697Z,6.91
2023-05-04T05:05:16.396Z,7.05
2023-05-04T05:06:17.065Z,7.08
2023-05-04T05:07:16.598Z,7.32
2023-05-04T05:08:17.145Z,7.32
2023-05-04T05:09:16.661Z,7.19
2023-05-04T05:10:17.184Z,7.40
2023-05-04T05:11:16.736Z,7.45
2023-05-04T05:12:16.420Z,7.50
2023-05-04T05:13:17.125Z,7.64
2023-05-04T05:14:16.902Z,7.76
2023-05-04T05:15:16.471Z,7.87
2023-05-04T05:16:17.061Z,7.80
2023-05-04T05:17:16.729Z,7.78
2023-05-04T05:18:17.325Z,7.77
2023-05-04T05:19:16.869Z,7.71
2023-05-04T05:20:16.424Z,7.71
2023-05-04T05:21:16.975Z,7.71
2023-05-04T05:22:17.209Z,7.84
2023-05-04T05:23:16.751Z,7.90
2023-05-04T05:24:17.279Z,8.04
2023-05-04T05:25:16.812Z,8.32
2023-05-04T05:26:16.375Z,8.29
2023-05-04T05:27:16.949Z,8.51
2023-05-04T05:28:16.528Z,8.57
2023-05-04T05:29:17.055Z,8.68
2023-05-04T05:30:16.624Z,8.50
2023-05-04T05:31:17.273Z,8.57
2023-05-04T05:32:16.876Z,8.85
2023-05-04T05:33:16.503Z,9.20
2023-05-04T05:34:17.175Z,9.34
2023-05-04T05:35:16.704Z,9.46
2023-05-04T05:36:17.285Z,9.55
2023-05-04T05:37:16.822Z,9.66
2023-05-04T05:38:16.392Z,9.99
2023-05-04T05:39:16.976Z,10.05
2023-05-04T05:40:16.563Z,10.09
2023-05-04T05:41:17.124Z,10.17
2023-05-04T05:42:16.903Z,10.21
2023-05-04T05:43:16.458Z,10.48
2023-05-04T05:44:17.019Z,10.65
2023-05-04T05:45:16.592Z,10.70
2023-05-04T05:46:17.181Z,10.51
2023-05-04T05:47:16.801Z,10.43
2023-05-04T05:48:16.336Z,10.64
2023-05-04T05:49:16.885Z,10.58
2023-05-04T05:50:16.405Z,11.07
2023-05-04T05:51:16.975Z,11.20
2023-05-04T05:52:16.833Z,11.31
2023-05-04T05:53:16.379Z,11.37
2023-05-04T05:54:16.932Z,11.45
2023-05-04T05:55:16.503Z,11.57
2023-05-04T05:56:17.054Z,11.62
2023-05-04T05:57:16.650Z,11.68
2023-05-04T05:58:17.227Z,11.82
2023-05-04T05:59:16.793Z,11.82
2023-05-04T06:00:16.350Z,11.82
2023-05-04T06:01:16.901Z,12.17
2023-05-04T06:02:17.051Z,12.31
2023-05-04T06:03:16.703Z,12.06
2023-05-04T06:04:16.452Z,12.19
2023-05-04T06:05:17.169Z,12.37
2023-05-04T06:06:16.729Z,12.17
2023-05-04T06:07:17.305Z,11.90
2023-05-04T06:08:16.854Z,11.86
2023-05-04T06:09:16.466Z,12.08
2023-05-04T06:10:17.090Z,11.83
2023-05-04T06:11:16.685Z,11.85
2023-05-04T06:12:16.674Z,11.97
2023-05-04T06:13:17.298Z,11.94
2023-05-04T06:14:16.919Z,11.97
2023-05-04T06:15:16.462Z,12.32
2023-05-04T06:16:17.033Z,12.83
2023-05-04T06:17:16.713Z,12.80
2023-05-04T06:18:17.238Z,12.69
2023-05-04T06:19:16.781Z,12.37
2023-05-04T06:20:16.352Z,12.38
2023-05-04T06:21:16.919Z,12.60
2023-05-04T06:22:16.702Z,13.02
2023-05-04T06:23:17.258Z,13.21
2023-05-04T06:24:16.858Z,13.39
2023-05-04T06:25:16.478Z,13.27
2023-05-04T06:26:17.042Z,13.41
2023-05-04T06:27:16.579Z,13.65
2023-05-04T06:28:17.147Z,13.87
2023-05-04T06:29:16.684Z,14.10
2023-05-04T06:30:17.283Z,14.05
2023-05-04T06:31:16.859Z,13.77
2023-05-04T06:32:16.708Z,13.52
2023-05-04T06:33:16.371Z,13.52
2023-05-04T06:34:16.972Z,13.83
2023-05-04T06:35:16.577Z,14.28
2023-05-04T06:36:17.153Z,14.49
2023-05-04T06:37:16.711Z,14.73
2023-05-04T06:38:17.253Z,14.73
2023-05-04T06:39:16.833Z,14.66
2023-05-04T06:40:16.416Z,13.92
2023-05-04T06:41:17.090Z,14.27
2023-05-04T06:42:16.327Z,14.90
2023-05-04T06:43:17.145Z,15.08
2023-05-04T06:44:16.697Z,15.35
2023-05-04T06:45:17.289Z,15.66
2023-05-04T06:46:16.868Z,15.63
2023-05-04T06:47:16.536Z,15.64
2023-05-04T06:48:17.099Z,15.53
2023-05-04T06:49:16.661Z,15.67
2023-05-04T06:50:17.229Z,15.80
2023-05-04T06:51:16.812Z,15.81
2023-05-04T06:52:17.236Z,15.95
2023-05-04T06:53:16.819Z,16.17
2023-05-04T06:54:16.422Z,16.01
2023-05-04T06:55:16.972Z,16.22
2023-05-04T06:56:16.536Z,16.35
2023-05-04T06:57:17.097Z,15.92
2023-05-04T06:58:16.664Z,16.42
2023-05-04T06:59:17.241Z,16.50
2023-05-04T07:00:16.798Z,15.49
2023-05-04T07:01:18.236Z,16.21
2023-05-04T07:02:16.572Z,16.50
2023-05-04T07:03:17.171Z,16.53
2023-05-04T07:04:16.874Z,16.88
2023-05-04T07:05:16.491Z,17.15
2023-05-04T07:06:17.036Z,16.92
2023-05-04T07:07:16.625Z,16.98
2023-05-04T07:08:17.176Z,17.14
2023-05-04T07:09:16.802Z,17.33
2023-05-04T07:10:16.382Z,17.44
2023-05-04T07:11:16.971Z,17.58
2023-05-04T07:12:16.892Z,17.89
2023-05-04T07:13:16.466Z,18.15
2023-05-04T07:14:17.106Z,18.33
2023-05-04T07:15:16.818Z,18.57
2023-05-04T07:16:16.442Z,18.53
2023-05-04T07:17:17.102Z,18.84
2023-05-04T07:18:16.670Z,18.99
2023-05-04T07:19:17.285Z,18.67
2023-05-04T07:20:16.867Z,18.72
2023-05-04T07:21:27.353Z,18.54
2023-05-04T07:22:16.520Z,17.76
2023-05-04T07:23:17.084Z,18.64
2023-05-04T07:24:16.682Z,18.60
2023-05-04T07:25:17.251Z,18.74
2023-05-04T07:26:16.805Z,18.51
2023-05-04T07:27:16.380Z,18.77
2023-05-04T07:28:16.909Z,18.77
2023-05-04T07:29:16.446Z,17.64
2023-05-04T07:30:17.060Z,18.06
2023-05-04T07:31:16.694Z,18.68
2023-05-04T07:32:16.925Z,18.78
2023-05-04T07:33:16.849Z,19.10
2023-05-04T07:34:16.507Z,19.47
2023-05-04T07:35:17.061Z,19.54
2023-05-04T07:36:16.645Z,19.27
2023-05-04T07:37:17.216Z,18.94
2023-05-04T07:38:16.753Z,18.22
2023-05-04T07:39:17.295Z,18.34
2023-05-04T07:40:16.864Z,18.60
2023-05-04T07:41:16.454Z,18.89
2023-05-04T07:42:16.429Z,19.27
2023-05-04T07:43:17.002Z,19.25
2023-05-04T07:44:16.665Z,19.36
2023-05-04T07:45:16.364Z,19.54
2023-05-04T07:46:16.947Z,19.89
2023-05-04T07:47:16.631Z,19.64
2023-05-04T07:49:16.603Z,20.38
2023-05-04T07:50:17.148Z,20.65
2023-05-04T07:51:16.706Z,20.67
2023-05-04T07:52:16.367Z,20.79
2023-05-04T07:53:16.901Z,19.36
2023-05-04T07:54:16.457Z,19.75
2023-05-04T07:55:17.059Z,19.34
2023-05-04T07:56:16.634Z,19.57
2023-05-04T07:57:17.190Z,19.26
2023-05-04T07:58:16.922Z,18.85
2023-05-04T07:59:16.580Z,19.31
2023-05-04T08:00:17.142Z,19.54
2023-05-04T08:01:16.719Z,19.07
2023-05-04T08:02:16.966Z,18.29
2023-05-04T08:03:16.612Z,18.81
2023-05-04T08:04:17.265Z,19.16
2023-05-04T08:05:16.820Z,19.88
2023-05-04T08:06:16.376Z,20.15
2023-05-04T08:07:16.975Z,20.72
2023-05-04T08:08:16.542Z,21.00
2023-05-04T08:09:17.101Z,21.02
2023-05-04T08:10:16.671Z,21.62
2023-05-04T08:11:20.324Z,21.54
2023-05-04T08:12:17.212Z,21.55
2023-05-04T08:13:16.896Z,21.41
2023-05-04T08:14:16.548Z,20.81
2023-05-04T08:15:17.105Z,21.19
2023-05-04T08:16:16.640Z,21.93
2023-05-04T08:17:17.212Z,22.83
2023-05-04T08:18:16.760Z,22.99
2023-05-04T08:19:17.321Z,23.06
2023-05-04T08:20:16.935Z,22.48
2023-05-04T08:21:16.522Z,22.80
2023-05-04T08:22:17.297Z,23.09
2023-05-04T08:23:16.910Z,22.96
2023-05-04T08:24:16.504Z,21.95
2023-05-04T08:25:17.076Z,21.98
2023-05-04T08:26:16.674Z,20.99
2023-05-04T08:27:17.222Z,20.96
2023-05-04T08:28:16.777Z,21.16
2023-05-04T08:29:16.320Z,20.43
2023-05-04T08:30:16.900Z,21.33
2023-05-04T08:31:16.473Z,21.11
2023-05-04T08:32:17.006Z,20.92
2023-05-04T08:33:16.572Z,22.05
2023-05-04T08:34:17.161Z,22.12
2023-05-04T08:35:16.710Z,22.35
2023-05-04T08:36:17.273Z,21.61
2023-05-04T08:37:16.856Z,20.12
2023-05-04T08:38:16.411Z,20.44
2023-05-04T08:39:17.019Z,20.40
2023-05-04T08:40:16.608Z,20.85
2023-05-04T08:41:17.167Z,21.66
2023-05-04T08:42:17.074Z,22.24
2023-05-04T08:43:16.613Z,22.80
2023-05-04T08:44:17.163Z,22.92
2023-05-04T08:45:16.734Z,22.44
2023-05-04T08:46:17.347Z,22.72
2023-05-04T08:47:17.193Z,22.68
2023-05-04T08:48:16.735Z,22.90
2023-05-04T08:49:17.312Z,21.95
2023-05-04T08:50:16.857Z,22.06
2023-05-04T08:51:16.430Z,22.27
2023-05-04T08:52:16.415Z,23.03
2023-05-04T08:53:16.985Z,23.38
2023-05-04T08:54:16.550Z,23.97
2023-05-04T08:55:17.125Z,23.97
2023-05-04T08:56:16.738Z,24.03
2023-05-04T08:57:16.333Z,23.99
2023-05-04T08:58:16.904Z,23.26
2023-05-04T08:59:16.508Z,23.84
2023-05-04T09:00:17.080Z,23.84
2023-05-04T09:01:16.681Z,23.66
2023-05-04T09:02:16.681Z,24.16
2023-05-04T09:03:17.345Z,23.99
2023-05-04T09:04:17.083Z,24.82
2023-05-04T09:05:16.638Z,23.17
2023-05-04T09:06:17.176Z,23.93
2023-05-04T09:07:16.745Z,25.45
2023-05-04T09:08:17.276Z,25.10
2023-05-04T09:09:16.806Z,25.35
2023-05-04T09:10:16.371Z,25.69
2023-05-04T09:11:16.940Z,25.78
2023-05-04T09:12:16.703Z,26.07
2023-05-04T09:13:17.310Z,23.27
2023-05-04T09:14:17.017Z,23.29
2023-05-04T09:15:16.580Z,22.95
2023-05-04T09:16:17.213Z,23.38
2023-05-04T09:17:16.847Z,23.85
2023-05-04T09:18:16.400Z,23.96
2023-05-04T09:19:17.089Z,23.71
2023-05-04T09:20:16.667Z,22.65
2023-05-04T09:21:17.211Z,23.16
2023-05-04T09:22:16.885Z,21.61
2023-05-04T09:23:16.627Z,22.89
2023-05-04T09:24:17.216Z,23.59
2023-05-04T09:25:16.789Z,24.21
2023-05-04T09:26:16.333Z,24.79
2023-05-04T09:27:16.907Z,24.24
2023-05-04T09:28:16.468Z,23.76
2023-05-04T09:29:17.037Z,23.51
2023-05-04T09:30:16.594Z,21.68
2023-05-04T09:31:17.195Z,21.68
2023-05-04T09:32:16.958Z,21.17
2023-05-04T09:33:16.542Z,21.50
2023-05-04T09:34:17.159Z,21.95
2023-05-04T09:35:25.609Z,22.23
2023-05-04T09:36:17.068Z,21.33
2023-05-04T09:37:16.728Z,21.76
2023-05-04T09:38:17.319Z,23.19
2023-05-04T09:39:16.874Z,23.30
2023-05-04T09:40:16.434Z,22.47
2023-05-04T09:41:17.010Z,21.93
2023-05-04T09:42:17.003Z,22.31
2023-05-04T09:43:16.561Z,22.85
2023-05-04T09:44:17.102Z,23.10
2023-05-04T09:45:16.688Z,23.10
2023-05-04T09:46:17.296Z,23.33
2023-05-04T09:47:16.993Z,23.30
2023-05-04T09:48:16.609Z,23.59
2023-05-04T09:49:17.194Z,22.40
2023-05-04T09:50:19.313Z,21.34
2023-05-04T09:51:16.599Z,22.27
2023-05-04T09:52:17.115Z,21.81
2023-05-04T09:53:16.649Z,22.52
2023-05-04T09:54:17.214Z,22.96
2023-05-04T09:55:16.828Z,23.45
2023-05-04T09:56:16.423Z,23.54
2023-05-04T09:57:17.003Z,23.22
2023-05-04T09:58:16.552Z,24.00
2023-05-04T09:59:17.110Z,23.57
2023-05-04T10:00:16.661Z,24.02
2023-05-04T10:01:17.274Z,23.29
2023-05-04T10:02:22.940Z,22.85
2023-05-04T10:03:17.083Z,22.79
2023-05-04T10:04:16.701Z,22.86
2023-05-04T10:05:17.315Z,23.03
2023-05-04T10:06:17.311Z,22.21
2023-05-04T10:07:16.900Z,21.20
2023-05-04T10:08:16.485Z,20.64
2023-05-04T10:09:17.061Z,20.98
2023-05-04T10:10:16.656Z,21.45
2023-05-04T10:11:17.217Z,22.45
2023-05-04T10:12:16.737Z,23.71
2023-05-04T10:13:16.407Z,23.85
2023-05-04T10:14:17.111Z,24.27
2023-05-04T10:15:16.678Z,24.82
2023-05-04T10:16:17.280Z,24.98
2023-05-04T10:17:16.890Z,25.72
2023-05-04T10:18:16.467Z,26.08
2023-05-04T10:19:17.015Z,26.72
2023-05-04T10:20:16.650Z,25.21
2023-05-04T10:21:17.261Z,25.14
2023-05-04T10:22:17.346Z,24.98
2023-05-04T10:23:16.898Z,25.02
2023-05-04T10:24:16.457Z,25.40
2023-05-04T10:25:17.036Z,23.88
2023-05-04T10:26:16.581Z,24.47
2023-05-04T10:27:17.161Z,24.58
2023-05-04T10:28:16.705Z,24.21
2023-05-04T10:29:17.257Z,23.40
2023-05-04T10:30:16.828Z,23.99
2023-05-04T10:31:16.518Z,23.93
2023-05-04T10:32:16.625Z,23.58
2023-05-04T10:33:17.205Z,24.02
2023-05-04T10:34:16.996Z,24.46
2023-05-04T10:35:16.589Z,23.65
2023-05-04T10:36:17.190Z,23.88
2023-05-04T10:37:16.770Z,24.37
2023-05-04T10:38:16.330Z,23.88
2023-05-04T10:39:16.918Z,23.50
2023-05-04T10:40:16.477Z,23.69
2023-05-04T10:41:17.102Z,24.14
2023-05-04T10:42:16.727Z,24.03
2023-05-04T10:43:17.262Z,22.76
2023-05-04T10:44:16.789Z,23.54
2023-05-04T10:45:16.352Z,22.92
2023-05-04T10:46:17.068Z,24.12
2023-05-04T10:47:16.803Z,24.23
2023-05-04T10:48:16.374Z,24.04
2023-05-04T10:49:16.966Z,24.62
2023-05-04T10:50:16.568Z,25.03
2023-05-04T10:51:17.220Z,23.69
2023-05-04T10:52:17.251Z,24.03
2023-05-04T10:53:16.837Z,24.13
2023-05-04T10:54:16.435Z,24.37
2023-05-04T10:55:16.998Z,24.59
2023-05-04T10:56:16.553Z,23.50
2023-05-04T10:57:17.111Z,24.30
2023-05-04T10:58:16.766Z,24.09
2023-05-04T10:59:16.414Z,24.33
2023-05-04T11:00:16.951Z,24.12
2023-05-04T11:01:16.558Z,24.31
2023-05-04T11:02:16.863Z,24.68
2023-05-04T11:03:16.470Z,24.46
2023-05-04T11:04:17.305Z,24.59
2023-05-04T11:05:16.849Z,24.06
2023-05-04T11:06:16.382Z,23.84
2023-05-04T11:07:16.950Z,24.10
2023-05-04T11:08:16.532Z,24.25
2023-05-04T11:09:17.185Z,23.37
2023-05-04T11:10:16.750Z,23.03
2023-05-04T11:11:17.294Z,23.65
2023-05-04T11:12:17.184Z,24.27
2023-05-04T11:13:16.832Z,24.12
2023-05-04T11:14:16.659Z,24.12
2023-05-04T11:15:17.222Z,23.52
2023-05-04T11:16:16.815Z,23.72
2023-05-04T11:18:17.923Z,23.03
2023-05-04T11:19:16.584Z,22.37
2023-05-04T11:20:17.135Z,22.69
2023-05-04T11:21:16.700Z,22.88
2023-05-04T11:22:16.897Z,22.55
2023-05-04T11:23:16.450Z,22.62
2023-05-04T11:24:17.021Z,23.26
2023-05-04T11:25:16.640Z,23.14
2023-05-04T11:26:17.233Z,23.57
2023-05-04T11:27:16.787Z,22.99
2023-05-04T11:28:16.344Z,23.55
2023-05-04T11:29:16.928Z,23.66
2023-05-04T11:30:16.517Z,23.85
2023-05-04T11:31:17.209Z,22.92
2023-05-04T11:32:16.836Z,22.80
2023-05-04T11:33:16.428Z,23.31
2023-05-04T11:34:16.952Z,22.40
2023-05-04T11:35:16.491Z,21.86
2023-05-04T11:36:17.059Z,21.71
2023-05-04T11:37:16.637Z,21.68
2023-05-04T11:38:17.174Z,22.24
2023-05-04T11:39:16.712Z,22.58
2023-05-04T11:40:17.307Z,22.80
2023-05-04T11:41:16.864Z,22.52
2023-05-04T11:42:16.383Z,22.64
2023-05-04T11:43:16.918Z,22.51
2023-05-04T11:44:16.482Z,21.95
2023-05-04T11:45:17.089Z,21.78
2023-05-04T11:46:16.863Z,21.69
2023-05-04T11:47:16.568Z,21.91
2023-05-04T11:48:18.601Z,21.95
2023-05-04T11:49:16.417Z,21.81
2023-05-04T11:50:16.978Z,21.82
2023-05-04T11:51:16.547Z,21.98
2023-05-04T11:52:16.553Z,21.92
2023-05-04T11:53:17.087Z,21.85
2023-05-04T11:54:16.648Z,21.83
2023-05-04T11:55:17.212Z,21.78
2023-05-04T11:56:16.758Z,21.76
2023-05-04T11:57:17.324Z,21.88
2023-05-04T11:58:16.986Z,21.98
2023-05-04T11:59:16.535Z,21.50
2023-05-04T12:00:17.103Z,21.51
2023-05-04T12:01:16.636Z,21.72
2023-05-04T12:02:16.825Z,21.58
2023-05-04T12:03:16.616Z,21.83
2023-05-04T12:04:16.426Z,21.92
2023-05-04T12:05:17.037Z,21.45
2023-05-04T12:06:16.648Z,21.00
2023-05-04T12:07:17.212Z,21.10
2023-05-04T12:08:16.790Z,21.09
2023-05-04T12:09:16.347Z,21.17
2023-05-04T12:10:16.950Z,21.30
2023-05-04T12:11:16.612Z,21.62
2023-05-04T12:12:17.147Z,21.53
2023-05-04T12:13:16.723Z,21.36
2023-05-04T12:14:16.332Z,21.41
2023-05-04T12:15:16.873Z,21.58
2023-05-04T12:16:16.496Z,21.43
2023-05-04T12:17:17.183Z,21.41
2023-05-04T12:18:16.764Z,21.50
2023-05-04T12:19:17.307Z,21.31
2023-05-04T12:20:16.833Z,21.19
2023-05-04T12:21:16.432Z,20.96
2023-05-04T12:22:16.927Z,20.98
2023-05-04T12:23:16.492Z,21.05
2023-05-04T12:24:17.113Z,21.07
2023-05-04T12:25:16.730Z,21.21
2023-05-04T12:26:19.514Z,21.29
2023-05-04T12:27:16.432Z,21.16
2023-05-04T12:28:17.007Z,21.03
2023-05-04T12:29:16.568Z,20.89
2023-05-04T12:30:17.140Z,20.95
2023-05-04T12:31:16.735Z,21.37
2023-05-04T12:32:16.401Z,21.41
2023-05-04T12:33:17.012Z,21.36
2023-05-04T12:34:16.588Z,21.19
2023-05-04T12:35:17.217Z,21.16
2023-05-04T12:36:16.794Z,21.23
2023-05-04T12:37:16.385Z,20.98
2023-05-04T12:38:16.932Z,20.75
2023-05-04T12:39:16.560Z,20.72
2023-05-04T12:40:27.593Z,20.79
2023-05-04T12:41:16.472Z,20.83
2023-05-04T12:42:16.890Z,20.81
2023-05-04T12:43:16.772Z,20.82
2023-05-04T12:44:16.436Z,20.78
2023-05-04T12:45:16.970Z,20.83
2023-05-04T12:46:16.770Z,20.85
2023-05-04T12:47:16.381Z,20.76
2023-05-04T12:48:16.941Z,20.78
2023-05-04T12:49:16.524Z,20.83
2023-05-04T12:50:17.247Z,20.85
2023-05-04T12:51:16.809Z,20.78
2023-05-04T12:52:17.231Z,20.57
2023-05-04T12:53:16.849Z,20.58
2023-05-04T12:54:16.476Z,20.65
2023-05-04T12:55:17.055Z,20.67
2023-05-04T12:56:16.600Z,20.70
2023-05-04T12:57:17.153Z,20.83
2023-05-04T12:58:16.713Z,20.89
2023-05-04T12:59:17.320Z,20.81
2023-05-04T13:00:16.892Z,20.78
2023-05-04T13:01:16.479Z,20.76
2023-05-04T13:02:16.345Z,20.79
2023-05-04T13:03:17.052Z,20.81
2023-05-04T13:04:16.790Z,20.91
2023-05-04T13:05:16.369Z,20.92